sensor_id;sensor_type;location;lat;lon;timestamp;pressure;altitude;pressure_sealevel;temperature;humidity
41596;BME280;27283;52.504;13.358;2023-10-19T00:01:28;100163.25;;;7.78;69.56
41596;BME280;27283;52.504;13.358;2023-10-19T00:04:03;100171.66;;;7.92;69.32
41596;BME280;27283;52.504;13.358;2023-10-19T00:06:41;100161.94;;;7.83;69.52
41596;BME280;27283;52.504;13.358;2023-10-19T00:09:14;100165.97;;;7.87;69.15
41596;BME280;27283;52.504;13.358;2023-10-19T00:11:50;100158.94;;;7.86;69.28
41596;BME280;27283;52.504;13.358;2023-10-19T00:14:23;100164.44;;;7.84;69.01
41596;BME280;27283;52.504;13.358;2023-10-19T00:16:56;100157.75;;;7.80;69.65
41596;BME280;27283;52.504;13.358;2023-10-19T00:19:33;100145.06;;;7.90;68.66
41596;BME280;27283;52.504;13.358;2023-10-19T00:22:12;100135.53;;;7.96;68.75
41596;BME280;27283;52.504;13.358;2023-10-19T00:24:50;100136.50;;;7.78;69.37
41596;BME280;27283;52.504;13.358;2023-10-19T00:27:22;100130.31;;;7.78;69.33
41596;BME280;27283;52.504;13.358;2023-10-19T00:29:52;100129.16;;;7.80;69.15
41596;BME280;27283;52.504;13.358;2023-10-19T00:32:36;100110.22;;;7.74;69.11
41596;BME280;27283;52.504;13.358;2023-10-19T00:35:10;100105.41;;;7.86;69.29
41596;BME280;27283;52.504;13.358;2023-10-19T00:37:59;100112.41;;;7.78;69.11
41596;BME280;27283;52.504;13.358;2023-10-19T00:40:51;100095.69;;;7.76;69.41
41596;BME280;27283;52.504;13.358;2023-10-19T00:43:29;100093.50;;;7.80;69.31
41596;BME280;27283;52.504;13.358;2023-10-19T00:46:05;100085.47;;;7.72;69.36
41596;BME280;27283;52.504;13.358;2023-10-19T00:48:47;100076.44;;;7.73;69.75
41596;BME280;27283;52.504;13.358;2023-10-19T00:51:27;100072.91;;;7.64;69.71
41596;BME280;27283;52.504;13.358;2023-10-19T00:54:16;100071.22;;;7.63;69.84
41596;BME280;27283;52.504;13.358;2023-10-19T00:56:56;100082.59;;;7.65;69.84
41596;BME280;27283;52.504;13.358;2023-10-19T00:59:48;100081.28;;;7.69;69.94
41596;BME280;27283;52.504;13.358;2023-10-19T01:02:43;100069.75;;;7.77;69.57
41596;BME280;27283;52.504;13.358;2023-10-19T01:05:16;100069.38;;;7.63;69.64
41596;BME280;27283;52.504;13.358;2023-10-19T01:07:50;100060.03;;;7.59;70.43
41596;BME280;27283;52.504;13.358;2023-10-19T01:10:30;100056.00;;;7.63;70.16
41596;BME280;27283;52.504;13.358;2023-10-19T01:13:02;100049.31;;;7.59;70.16
41596;BME280;27283;52.504;13.358;2023-10-19T01:15:35;100051.16;;;7.59;70.24
41596;BME280;27283;52.504;13.358;2023-10-19T01:18:08;100050.66;;;7.63;70.25
41596;BME280;27283;52.504;13.358;2023-10-19T01:20:44;100050.31;;;7.58;70.42
41596;BME280;27283;52.504;13.358;2023-10-19T01:23:23;100035.25;;;7.57;70.50
41596;BME280;27283;52.504;13.358;2023-10-19T01:25:59;100032.94;;;7.62;70.52
41596;BME280;27283;52.504;13.358;2023-10-19T01:28:34;100021.72;;;7.51;71.04
41596;BME280;27283;52.504;13.358;2023-10-19T01:31:19;100027.94;;;7.59;70.96
41596;BME280;27283;52.504;13.358;2023-10-19T01:34:01;100028.59;;;7.61;70.72
41596;BME280;27283;52.504;13.358;2023-10-19T01:36:35;100021.59;;;7.69;70.33
41596;BME280;27283;52.504;13.358;2023-10-19T01:39:15;100020.06;;;7.66;70.60
41596;BME280;27283;52.504;13.358;2023-10-19T01:41:49;100012.53;;;7.61;70.21
41596;BME280;27283;52.504;13.358;2023-10-19T01:44:22;100005.66;;;7.59;70.51
41596;BME280;27283;52.504;13.358;2023-10-19T01:46:54;99995.78;;;7.51;70.59
41596;BME280;27283;52.504;13.358;2023-10-19T01:49:30;99988.13;;;7.56;70.96
41596;BME280;27283;52.504;13.358;2023-10-19T01:52:02;99979.75;;;7.51;70.79
41596;BME280;27283;52.504;13.358;2023-10-19T01:54:38;99973.88;;;7.56;70.83
41596;BME280;27283;52.504;13.358;2023-10-19T01:57:08;99966.69;;;7.48;71.26
41596;BME280;27283;52.504;13.358;2023-10-19T01:59:43;99965.00;;;7.47;70.96
41596;BME280;27283;52.504;13.358;2023-10-19T02:02:14;99975.22;;;7.52;70.78
41596;BME280;27283;52.504;13.358;2023-10-19T02:04:47;99964.84;;;7.40;71.59
41596;BME280;27283;52.504;13.358;2023-10-19T02:07:22;99958.50;;;7.50;71.28
41596;BME280;27283;52.504;13.358;2023-10-19T02:09:54;99960.34;;;7.49;70.87
41596;BME280;27283;52.504;13.358;2023-10-19T02:12:27;99961.50;;;7.47;71.10
41596;BME280;27283;52.504;13.358;2023-10-19T02:14:56;99962.16;;;7.49;71.30
41596;BME280;27283;52.504;13.358;2023-10-19T02:17:30;99949.66;;;7.57;70.46
41596;BME280;27283;52.504;13.358;2023-10-19T02:20:03;99957.00;;;7.55;70.99
41596;BME280;27283;52.504;13.358;2023-10-19T02:23:07;99944.13;;;7.51;71.03
41596;BME280;27283;52.504;13.358;2023-10-19T02:25:43;99937.59;;;7.70;70.69
41596;BME280;27283;52.504;13.358;2023-10-19T02:28:16;99943.47;;;7.65;70.52
41596;BME280;27283;52.504;13.358;2023-10-19T02:30:46;99930.41;;;7.62;70.50
41596;BME280;27283;52.504;13.358;2023-10-19T02:33:18;99933.94;;;7.54;70.53
41596;BME280;27283;52.504;13.358;2023-10-19T02:35:49;99928.41;;;7.48;70.80
41596;BME280;27283;52.504;13.358;2023-10-19T02:38:21;99922.06;;;7.40;71.36
41596;BME280;27283;52.504;13.358;2023-10-19T02:40:57;99920.91;;;7.43;71.37
41596;BME280;27283;52.504;13.358;2023-10-19T02:43:27;99915.22;;;7.46;70.87
41596;BME280;27283;52.504;13.358;2023-10-19T02:46:04;99911.84;;;7.60;70.96
41596;BME280;27283;52.504;13.358;2023-10-19T02:48:34;99905.00;;;7.66;70.40
41596;BME280;27283;52.504;13.358;2023-10-19T02:51:07;99911.34;;;7.65;70.77
41596;BME280;27283;52.504;13.358;2023-10-19T02:53:40;99906.50;;;7.60;70.66
41596;BME280;27283;52.504;13.358;2023-10-19T02:56:16;99896.00;;;7.67;70.14
41596;BME280;27283;52.504;13.358;2023-10-19T02:58:46;99900.81;;;7.63;70.22
41596;BME280;27283;52.504;13.358;2023-10-19T03:01:21;99898.97;;;7.72;70.06
41596;BME280;27283;52.504;13.358;2023-10-19T03:03:55;99891.44;;;7.76;70.18
41596;BME280;27283;52.504;13.358;2023-10-19T03:06:30;99886.59;;;7.71;69.89
41596;BME280;27283;52.504;13.358;2023-10-19T03:09:05;99878.91;;;7.76;69.83
41596;BME280;27283;52.504;13.358;2023-10-19T03:11:45;99882.75;;;7.82;69.37
41596;BME280;27283;52.504;13.358;2023-10-19T03:14:15;99874.06;;;7.72;69.92
41596;BME280;27283;52.504;13.358;2023-10-19T03:16:47;99868.03;;;7.70;69.89
41596;BME280;27283;52.504;13.358;2023-10-19T03:19:17;99872.22;;;7.72;69.98
41596;BME280;27283;52.504;13.358;2023-10-19T03:21:49;99870.56;;;7.63;69.97
41596;BME280;27283;52.504;13.358;2023-10-19T03:24:19;99861.53;;;7.64;70.45
41596;BME280;27283;52.504;13.358;2023-10-19T03:27:15;99856.66;;;7.76;69.67
41596;BME280;27283;52.504;13.358;2023-10-19T03:29:47;99858.03;;;7.72;69.57
41596;BME280;27283;52.504;13.358;2023-10-19T03:32:25;99859.66;;;7.81;69.45
41596;BME280;27283;52.504;13.358;2023-10-19T03:35:08;99856.16;;;7.80;69.73
41596;BME280;27283;52.504;13.358;2023-10-19T03:37:58;99850.44;;;7.92;69.46
41596;BME280;27283;52.504;13.358;2023-10-19T03:40:37;99838.56;;;7.94;69.09
41596;BME280;27283;52.504;13.358;2023-10-19T03:43:12;99842.94;;;7.87;69.15
41596;BME280;27283;52.504;13.358;2023-10-19T03:45:54;99836.41;;;7.81;69.72
41596;BME280;27283;52.504;13.358;2023-10-19T03:48:27;99823.03;;;7.81;69.48
41596;BME280;27283;52.504;13.358;2023-10-19T03:51:06;99821.22;;;7.74;69.87
41596;BME280;27283;52.504;13.358;2023-10-19T03:53:41;99814.34;;;7.71;69.79
41596;BME280;27283;52.504;13.358;2023-10-19T03:56:24;99817.38;;;7.76;70.13
41596;BME280;27283;52.504;13.358;2023-10-19T03:59:09;99813.19;;;7.82;69.73
41596;BME280;27283;52.504;13.358;2023-10-19T04:01:45;99815.84;;;7.74;70.02
41596;BME280;27283;52.504;13.358;2023-10-19T04:04:29;99811.84;;;7.78;69.42
41596;BME280;27283;52.504;13.358;2023-10-19T04:07:03;99819.34;;;7.74;69.88
41596;BME280;27283;52.504;13.358;2023-10-19T04:09:40;99813.72;;;7.61;70.52
41596;BME280;27283;52.504;13.358;2023-10-19T04:12:27;99807.34;;;7.70;70.16
41596;BME280;27283;52.504;13.358;2023-10-19T04:15:06;99803.13;;;7.76;70.10
41596;BME280;27283;52.504;13.358;2023-10-19T04:17:47;99791.09;;;7.80;70.02
41596;BME280;27283;52.504;13.358;2023-10-19T04:20:22;99794.78;;;7.71;70.09
41596;BME280;27283;52.504;13.358;2023-10-19T04:23:11;99782.28;;;7.55;70.78
41596;BME280;27283;52.504;13.358;2023-10-19T04:25:45;99788.78;;;7.69;70.60
41596;BME280;27283;52.504;13.358;2023-10-19T04:28:18;99779.22;;;7.74;70.33
41596;BME280;27283;52.504;13.358;2023-10-19T04:31:02;99783.56;;;7.84;69.81
41596;BME280;27283;52.504;13.358;2023-10-19T04:33:36;99778.78;;;7.62;70.30
41596;BME280;27283;52.504;13.358;2023-10-19T04:36:10;99772.69;;;7.77;70.46
41596;BME280;27283;52.504;13.358;2023-10-19T04:38:43;99769.03;;;7.70;70.60
41596;BME280;27283;52.504;13.358;2023-10-19T04:41:16;99771.25;;;7.58;70.49
41596;BME280;27283;52.504;13.358;2023-10-19T04:43:49;99767.25;;;7.54;70.58
41596;BME280;27283;52.504;13.358;2023-10-19T04:46:24;99766.03;;;7.65;70.38
41596;BME280;27283;52.504;13.358;2023-10-19T04:48:58;99752.47;;;7.74;70.42
41596;BME280;27283;52.504;13.358;2023-10-19T04:51:35;99755.00;;;7.68;70.42
41596;BME280;27283;52.504;13.358;2023-10-19T04:54:23;99749.03;;;7.49;71.23
41596;BME280;27283;52.504;13.358;2023-10-19T04:57:04;99751.03;;;7.55;70.99
41596;BME280;27283;52.504;13.358;2023-10-19T05:00:14;99750.34;;;7.53;71.24
41596;BME280;27283;52.504;13.358;2023-10-19T05:02:56;99764.03;;;7.67;70.58
41596;BME280;27283;52.504;13.358;2023-10-19T05:05:43;99749.00;;;7.57;70.92
41596;BME280;27283;52.504;13.358;2023-10-19T05:08:16;99748.16;;;7.65;71.01
41596;BME280;27283;52.504;13.358;2023-10-19T05:10:48;99742.97;;;7.72;70.83
41596;BME280;27283;52.504;13.358;2023-10-19T05:13:20;99739.59;;;7.70;70.50
41596;BME280;27283;52.504;13.358;2023-10-19T05:15:55;99733.13;;;7.56;71.12
41596;BME280;27283;52.504;13.358;2023-10-19T05:18:31;99739.63;;;7.53;71.49
41596;BME280;27283;52.504;13.358;2023-10-19T05:21:04;99729.16;;;7.43;71.66
41596;BME280;27283;52.504;13.358;2023-10-19T05:23:41;99720.13;;;7.44;71.85
41596;BME280;27283;52.504;13.358;2023-10-19T05:26:14;99728.66;;;7.32;72.70
41596;BME280;27283;52.504;13.358;2023-10-19T05:29:05;99715.47;;;7.38;72.38
41596;BME280;27283;52.504;13.358;2023-10-19T05:31:38;99728.97;;;7.45;71.92
41596;BME280;27283;52.504;13.358;2023-10-19T05:34:14;99735.34;;;7.36;72.28
41596;BME280;27283;52.504;13.358;2023-10-19T05:36:53;99739.38;;;7.40;72.82
41596;BME280;27283;52.504;13.358;2023-10-19T05:39:30;99740.53;;;7.29;73.09
41596;BME280;27283;52.504;13.358;2023-10-19T05:42:05;99741.72;;;7.26;73.17
41596;BME280;27283;52.504;13.358;2023-10-19T05:44:38;99745.53;;;7.40;72.94
41596;BME280;27283;52.504;13.358;2023-10-19T05:47:27;99746.56;;;7.31;73.21
41596;BME280;27283;52.504;13.358;2023-10-19T05:50:03;99747.06;;;7.26;73.24
41596;BME280;27283;52.504;13.358;2023-10-19T05:52:37;99757.06;;;7.24;73.98
41596;BME280;27283;52.504;13.358;2023-10-19T05:55:09;99747.72;;;7.37;73.70
41596;BME280;27283;52.504;13.358;2023-10-19T05:57:43;99746.38;;;7.33;73.46
41596;BME280;27283;52.504;13.358;2023-10-19T06:00:16;99750.56;;;7.27;74.28
41596;BME280;27283;52.504;13.358;2023-10-19T06:02:50;99748.56;;;7.21;74.95
41596;BME280;27283;52.504;13.358;2023-10-19T06:05:28;99750.75;;;7.34;74.50
41596;BME280;27283;52.504;13.358;2023-10-19T06:08:00;99746.22;;;7.26;75.06
41596;BME280;27283;52.504;13.358;2023-10-19T06:10:34;99739.53;;;7.30;75.28
41596;BME280;27283;52.504;13.358;2023-10-19T06:13:08;99732.19;;;7.24;76.62
41596;BME280;27283;52.504;13.358;2023-10-19T06:15:40;99727.19;;;7.13;77.71
41596;BME280;27283;52.504;13.358;2023-10-19T06:18:17;99729.88;;;7.04;78.56
41596;BME280;27283;52.504;13.358;2023-10-19T06:20:52;99712.16;;;6.79;80.50
41596;BME280;27283;52.504;13.358;2023-10-19T06:23:39;99708.84;;;6.77;80.79
41596;BME280;27283;52.504;13.358;2023-10-19T06:26:14;99709.16;;;6.82;82.28
41596;BME280;27283;52.504;13.358;2023-10-19T06:28:58;99709.47;;;6.87;82.81
41596;BME280;27283;52.504;13.358;2023-10-19T06:31:33;99708.81;;;6.85;82.11
41596;BME280;27283;52.504;13.358;2023-10-19T06:34:18;99702.00;;;6.66;83.42
41596;BME280;27283;52.504;13.358;2023-10-19T06:37:04;99702.13;;;6.81;83.87
41596;BME280;27283;52.504;13.358;2023-10-19T06:40:05;99688.47;;;6.76;83.94
41596;BME280;27283;52.504;13.358;2023-10-19T06:42:46;99685.94;;;6.74;83.04
41596;BME280;27283;52.504;13.358;2023-10-19T06:45:22;99687.63;;;6.59;83.74
41596;BME280;27283;52.504;13.358;2023-10-19T06:48:00;99687.59;;;6.50;83.24
41596;BME280;27283;52.504;13.358;2023-10-19T06:50:36;99683.94;;;6.60;83.23
41596;BME280;27283;52.504;13.358;2023-10-19T06:53:25;99672.41;;;6.59;84.08
41596;BME280;27283;52.504;13.358;2023-10-19T06:56:03;99673.91;;;6.70;83.41
41596;BME280;27283;52.504;13.358;2023-10-19T06:58:39;99674.94;;;6.77;83.36
41596;BME280;27283;52.504;13.358;2023-10-19T07:01:19;99661.59;;;6.69;83.48
41596;BME280;27283;52.504;13.358;2023-10-19T07:04:03;99669.25;;;6.80;83.58
41596;BME280;27283;52.504;13.358;2023-10-19T07:06:44;99662.06;;;6.72;83.30
41596;BME280;27283;52.504;13.358;2023-10-19T07:09:21;99656.22;;;6.77;83.49
41596;BME280;27283;52.504;13.358;2023-10-19T07:11:58;99653.22;;;6.80;83.32
41596;BME280;27283;52.504;13.358;2023-10-19T07:14:33;99651.03;;;6.92;83.04
41596;BME280;27283;52.504;13.358;2023-10-19T07:17:07;99660.72;;;7.01;83.52
41596;BME280;27283;52.504;13.358;2023-10-19T07:19:43;99659.38;;;6.97;82.92
41596;BME280;27283;52.504;13.358;2023-10-19T07:22:19;99662.22;;;6.87;82.91
41596;BME280;27283;52.504;13.358;2023-10-19T07:24:54;99664.22;;;6.85;83.01
41596;BME280;27283;52.504;13.358;2023-10-19T07:27:49;99660.72;;;6.93;82.50
41596;BME280;27283;52.504;13.358;2023-10-19T07:30:30;99649.19;;;7.01;81.77
41596;BME280;27283;52.504;13.358;2023-10-19T07:33:04;99647.81;;;7.13;81.44
41596;BME280;27283;52.504;13.358;2023-10-19T07:35:45;99662.66;;;7.24;80.85
41596;BME280;27283;52.504;13.358;2023-10-19T07:38:27;99655.00;;;7.21;81.08
41596;BME280;27283;52.504;13.358;2023-10-19T07:44:08;99677.81;;;7.48;80.08
41596;BME280;27283;52.504;13.358;2023-10-19T07:46:46;99671.75;;;7.62;79.46
41596;BME280;27283;52.504;13.358;2023-10-19T07:49:19;99674.59;;;7.61;79.15
41596;BME280;27283;52.504;13.358;2023-10-19T07:51:55;99674.25;;;7.64;78.94
41596;BME280;27283;52.504;13.358;2023-10-19T07:54:29;99664.34;;;7.73;78.87
41596;BME280;27283;52.504;13.358;2023-10-19T07:57:04;99670.66;;;7.80;78.73
41596;BME280;27283;52.504;13.358;2023-10-19T07:59:38;99662.09;;;7.85;78.51
41596;BME280;27283;52.504;13.358;2023-10-19T08:02:15;99666.16;;;7.80;77.79
41596;BME280;27283;52.504;13.358;2023-10-19T08:05:20;99663.81;;;7.77;77.93
41596;BME280;27283;52.504;13.358;2023-10-19T08:07:56;99654.31;;;7.75;78.32
41596;BME280;27283;52.504;13.358;2023-10-19T08:10:41;99666.09;;;7.89;77.87
41596;BME280;27283;52.504;13.358;2023-10-19T08:13:32;99667.28;;;7.86;77.02
41596;BME280;27283;52.504;13.358;2023-10-19T08:16:13;99667.81;;;7.81;76.96
41596;BME280;27283;52.504;13.358;2023-10-19T08:19:19;99660.75;;;7.89;77.18
41596;BME280;27283;52.504;13.358;2023-10-19T08:21:56;99655.56;;;7.87;77.51
41596;BME280;27283;52.504;13.358;2023-10-19T08:24:34;99644.63;;;7.97;76.86
41596;BME280;27283;52.504;13.358;2023-10-19T08:27:46;99643.47;;;7.99;77.09
41596;BME280;27283;52.504;13.358;2023-10-19T08:30:28;99629.09;;;7.92;77.02
41596;BME280;27283;52.504;13.358;2023-10-19T08:33:16;99635.69;;;7.81;76.92
41596;BME280;27283;52.504;13.358;2023-10-19T08:35:59;99636.97;;;7.94;76.56
41596;BME280;27283;52.504;13.358;2023-10-19T08:38:44;99624.91;;;7.98;76.72
41596;BME280;27283;52.504;13.358;2023-10-19T08:41:16;99613.72;;;7.94;76.39
41596;BME280;27283;52.504;13.358;2023-10-19T08:43:58;99605.63;;;8.03;76.53
41596;BME280;27283;52.504;13.358;2023-10-19T08:46:33;99601.94;;;8.04;76.56
41596;BME280;27283;52.504;13.358;2023-10-19T08:49:14;99606.16;;;8.21;76.60
41596;BME280;27283;52.504;13.358;2023-10-19T08:51:58;99616.06;;;8.21;75.65
41596;BME280;27283;52.504;13.358;2023-10-19T08:54:34;99608.97;;;8.28;76.09
41596;BME280;27283;52.504;13.358;2023-10-19T08:57:18;99617.13;;;8.11;76.34
41596;BME280;27283;52.504;13.358;2023-10-19T08:59:51;99617.06;;;8.20;76.29
41596;BME280;27283;52.504;13.358;2023-10-19T09:02:41;99609.03;;;8.20;76.05
41596;BME280;27283;52.504;13.358;2023-10-19T09:05:14;99615.28;;;8.35;76.96
41596;BME280;27283;52.504;13.358;2023-10-19T09:07:55;99614.88;;;8.46;75.71
41596;BME280;27283;52.504;13.358;2023-10-19T09:10:29;99615.06;;;8.45;75.52
41596;BME280;27283;52.504;13.358;2023-10-19T09:13:06;99607.34;;;8.50;75.29
41596;BME280;27283;52.504;13.358;2023-10-19T09:15:47;99611.97;;;8.56;74.81
41596;BME280;27283;52.504;13.358;2023-10-19T09:18:26;99606.25;;;8.59;74.85
41596;BME280;27283;52.504;13.358;2023-10-19T09:21:00;99605.28;;;8.52;75.45
41596;BME280;27283;52.504;13.358;2023-10-19T09:23:37;99595.13;;;8.47;75.91
41596;BME280;27283;52.504;13.358;2023-10-19T09:26:11;99589.69;;;8.32;76.24
41596;BME280;27283;52.504;13.358;2023-10-19T09:28:49;99586.19;;;8.32;77.07
41596;BME280;27283;52.504;13.358;2023-10-19T09:31:26;99579.69;;;8.26;77.16
41596;BME280;27283;52.504;13.358;2023-10-19T09:34:06;99586.91;;;8.49;76.74
41596;BME280;27283;52.504;13.358;2023-10-19T09:36:40;99582.91;;;8.45;76.95
41596;BME280;27283;52.504;13.358;2023-10-19T09:39:13;99575.03;;;8.43;77.46
41596;BME280;27283;52.504;13.358;2023-10-19T09:41:46;99580.25;;;8.45;77.35
41596;BME280;27283;52.504;13.358;2023-10-19T09:44:21;99580.84;;;8.70;76.69
41596;BME280;27283;52.504;13.358;2023-10-19T09:46:59;99590.91;;;8.68;76.74
41596;BME280;27283;52.504;13.358;2023-10-19T09:49:40;99594.63;;;8.67;76.39
41596;BME280;27283;52.504;13.358;2023-10-19T09:52:13;99586.66;;;8.74;77.00
41596;BME280;27283;52.504;13.358;2023-10-19T09:54:52;99589.91;;;8.69;76.82
41596;BME280;27283;52.504;13.358;2023-10-19T09:57:31;99580.75;;;8.78;77.36
41596;BME280;27283;52.504;13.358;2023-10-19T10:00:09;99580.38;;;8.66;77.60
41596;BME280;27283;52.504;13.358;2023-10-19T10:03:04;99576.09;;;8.57;78.50
41596;BME280;27283;52.504;13.358;2023-10-19T10:05:48;99577.25;;;8.78;78.12
41596;BME280;27283;52.504;13.358;2023-10-19T10:08:36;99568.66;;;8.67;78.33
41596;BME280;27283;52.504;13.358;2023-10-19T10:11:17;99569.28;;;8.69;78.69
41596;BME280;27283;52.504;13.358;2023-10-19T10:13:59;99574.31;;;8.73;78.52
41596;BME280;27283;52.504;13.358;2023-10-19T10:16:34;99570.22;;;8.77;78.76
41596;BME280;27283;52.504;13.358;2023-10-19T10:19:35;99574.78;;;8.91;78.48
41596;BME280;27283;52.504;13.358;2023-10-19T10:22:11;99568.41;;;8.77;78.50
41596;BME280;27283;52.504;13.358;2023-10-19T10:24:45;99572.63;;;8.72;79.33
41596;BME280;27283;52.504;13.358;2023-10-19T10:27:21;99560.06;;;8.72;80.13
41596;BME280;27283;52.504;13.358;2023-10-19T10:29:57;99563.03;;;8.77;80.69
41596;BME280;27283;52.504;13.358;2023-10-19T10:33:13;99542.66;;;8.68;82.31
41596;BME280;27283;52.504;13.358;2023-10-19T10:35:55;99546.59;;;8.80;83.39
41596;BME280;27283;52.504;13.358;2023-10-19T10:38:37;99537.78;;;8.57;86.52
41596;BME280;27283;52.504;13.358;2023-10-19T10:41:23;99536.38;;;8.46;87.52
41596;BME280;27283;52.504;13.358;2023-10-19T10:44:10;99532.50;;;8.48;88.31
41596;BME280;27283;52.504;13.358;2023-10-19T10:46:44;99521.44;;;8.51;88.73
41596;BME280;27283;52.504;13.358;2023-10-19T10:49:19;99525.94;;;8.51;90.03
41596;BME280;27283;52.504;13.358;2023-10-19T10:52:00;99520.75;;;8.49;90.05
41596;BME280;27283;52.504;13.358;2023-10-19T10:54:38;99528.34;;;8.46;90.56
41596;BME280;27283;52.504;13.358;2023-10-19T10:57:22;99525.69;;;8.38;91.53
41596;BME280;27283;52.504;13.358;2023-10-19T11:00:04;99532.84;;;8.45;91.93
41596;BME280;27283;52.504;13.358;2023-10-19T11:02:39;99525.00;;;8.59;91.45
41596;BME280;27283;52.504;13.358;2023-10-19T11:05:20;99517.81;;;8.44;91.76
41596;BME280;27283;52.504;13.358;2023-10-19T11:08:03;99520.81;;;8.41;91.41
41596;BME280;27283;52.504;13.358;2023-10-19T11:10:44;99519.97;;;8.41;91.50
41596;BME280;27283;52.504;13.358;2023-10-19T11:13:23;99528.28;;;8.31;90.93
41596;BME280;27283;52.504;13.358;2023-10-19T11:15:59;99521.81;;;8.40;90.25
41596;BME280;27283;52.504;13.358;2023-10-19T11:18:36;99517.06;;;8.12;90.40
41596;BME280;27283;52.504;13.358;2023-10-19T11:21:10;99522.22;;;8.14;91.41
41596;BME280;27283;52.504;13.358;2023-10-19T11:23:57;99507.59;;;8.02;91.51
41596;BME280;27283;52.504;13.358;2023-10-19T11:26:40;99508.84;;;7.91;91.80
41596;BME280;27283;52.504;13.358;2023-10-19T11:29:16;99511.88;;;7.88;92.67
41596;BME280;27283;52.504;13.358;2023-10-19T11:31:57;99508.47;;;7.94;92.77
41596;BME280;27283;52.504;13.358;2023-10-19T11:34:32;99506.03;;;8.07;92.36
41596;BME280;27283;52.504;13.358;2023-10-19T11:37:07;99497.72;;;8.02;91.77
41596;BME280;27283;52.504;13.358;2023-10-19T11:39:43;99494.88;;;8.04;91.53
41596;BME280;27283;52.504;13.358;2023-10-19T11:42:23;99492.41;;;8.17;91.77
41596;BME280;27283;52.504;13.358;2023-10-19T11:44:55;99491.50;;;8.25;91.91
41596;BME280;27283;52.504;13.358;2023-10-19T11:47:30;99484.03;;;8.20;92.00
41596;BME280;27283;52.504;13.358;2023-10-19T11:50:23;99479.03;;;8.17;91.95
41596;BME280;27283;52.504;13.358;2023-10-19T11:52:56;99490.13;;;8.29;91.99
41596;BME280;27283;52.504;13.358;2023-10-19T11:55:31;99482.06;;;8.14;92.55
41596;BME280;27283;52.504;13.358;2023-10-19T11:58:11;99482.88;;;8.14;92.39
41596;BME280;27283;52.504;13.358;2023-10-19T12:00:44;99481.72;;;8.17;92.69
41596;BME280;27283;52.504;13.358;2023-10-19T12:03:17;99485.47;;;8.08;93.29
41596;BME280;27283;52.504;13.358;2023-10-19T12:05:51;99481.06;;;8.30;93.29
41596;BME280;27283;52.504;13.358;2023-10-19T12:08:25;99478.13;;;8.25;93.38
41596;BME280;27283;52.504;13.358;2023-10-19T12:10:59;99479.88;;;8.32;92.90
41596;BME280;27283;52.504;13.358;2023-10-19T12:13:36;99483.75;;;8.30;92.79
41596;BME280;27283;52.504;13.358;2023-10-19T12:16:09;99488.56;;;8.34;92.78
41596;BME280;27283;52.504;13.358;2023-10-19T12:18:44;99470.41;;;8.45;92.49
41596;BME280;27283;52.504;13.358;2023-10-19T12:21:28;99476.09;;;8.42;92.29
41596;BME280;27283;52.504;13.358;2023-10-19T12:24:07;99474.78;;;8.23;93.05
41596;BME280;27283;52.504;13.358;2023-10-19T12:26:42;99467.88;;;8.28;93.36
41596;BME280;27283;52.504;13.358;2023-10-19T12:29:20;99459.00;;;8.28;93.83
41596;BME280;27283;52.504;13.358;2023-10-19T12:31:55;99464.72;;;8.25;94.25
41596;BME280;27283;52.504;13.358;2023-10-19T12:34:39;99458.09;;;8.36;94.47
41596;BME280;27283;52.504;13.358;2023-10-19T12:37:14;99448.31;;;8.43;94.37
41596;BME280;27283;52.504;13.358;2023-10-19T12:39:48;99456.94;;;8.53;94.37
41596;BME280;27283;52.504;13.358;2023-10-19T12:42:34;99460.00;;;8.50;94.63
41596;BME280;27283;52.504;13.358;2023-10-19T12:45:09;99460.59;;;8.37;94.98
41596;BME280;27283;52.504;13.358;2023-10-19T12:47:42;99464.13;;;8.52;95.19
41596;BME280;27283;52.504;13.358;2023-10-19T12:50:14;99464.38;;;8.43;94.85
41596;BME280;27283;52.504;13.358;2023-10-19T12:52:49;99467.09;;;8.58;94.84
41596;BME280;27283;52.504;13.358;2023-10-19T12:55:23;99461.81;;;8.49;95.47
41596;BME280;27283;52.504;13.358;2023-10-19T12:57:58;99455.81;;;8.47;95.63
41596;BME280;27283;52.504;13.358;2023-10-19T13:00:41;99452.28;;;8.47;95.45
41596;BME280;27283;52.504;13.358;2023-10-19T13:03:20;99455.78;;;8.32;95.70
41596;BME280;27283;52.504;13.358;2023-10-19T13:05:54;99467.22;;;8.26;96.50
41596;BME280;27283;52.504;13.358;2023-10-19T13:08:27;99458.91;;;8.36;96.45
41596;BME280;27283;52.504;13.358;2023-10-19T13:11:01;99463.88;;;8.24;95.97
41596;BME280;27283;52.504;13.358;2023-10-19T13:13:46;99465.72;;;8.24;95.89
41596;BME280;27283;52.504;13.358;2023-10-19T13:16:22;99457.81;;;8.30;95.98
41596;BME280;27283;52.504;13.358;2023-10-19T13:18:58;99453.66;;;8.43;96.17
41596;BME280;27283;52.504;13.358;2023-10-19T13:21:39;99448.72;;;8.16;95.92
41596;BME280;27283;52.504;13.358;2023-10-19T13:24:14;99455.19;;;8.22;96.22
41596;BME280;27283;52.504;13.358;2023-10-19T13:26:49;99458.63;;;8.16;95.71
41596;BME280;27283;52.504;13.358;2023-10-19T13:29:23;99459.44;;;8.16;95.75
41596;BME280;27283;52.504;13.358;2023-10-19T13:32:00;99451.13;;;8.11;95.62
41596;BME280;27283;52.504;13.358;2023-10-19T13:34:36;99452.28;;;7.94;95.66
41596;BME280;27283;52.504;13.358;2023-10-19T13:37:10;99446.00;;;8.02;96.17
41596;BME280;27283;52.504;13.358;2023-10-19T13:39:45;99432.47;;;8.03;96.22
41596;BME280;27283;52.504;13.358;2023-10-19T13:42:28;99437.28;;;8.08;96.32
41596;BME280;27283;52.504;13.358;2023-10-19T13:45:44;99438.94;;;8.09;96.19
41596;BME280;27283;52.504;13.358;2023-10-19T13:48:54;99428.50;;;7.99;95.86
41596;BME280;27283;52.504;13.358;2023-10-19T13:51:51;99434.41;;;8.09;95.55
41596;BME280;27283;52.504;13.358;2023-10-19T13:54:33;99430.34;;;8.13;94.90
41596;BME280;27283;52.504;13.358;2023-10-19T13:57:12;99442.69;;;7.99;95.22
41596;BME280;27283;52.504;13.358;2023-10-19T13:59:52;99431.06;;;8.07;95.50
41596;BME280;27283;52.504;13.358;2023-10-19T14:02:28;99432.81;;;7.85;95.52